sensor_id;sensor_type;location;lat;lon;timestamp;pressure;altitude;pressure_sealevel;temperature;humidity
73624;BME280;61921;53.226;-1.296;2023-05-25T00:00:37;101659.16;;;17.70;66.88
73624;BME280;61921;53.226;-1.296;2023-05-25T00:03:02;101664.03;;;17.80;65.82
73624;BME280;61921;53.226;-1.296;2023-05-25T00:05:27;101666.68;;;17.86;65.74
73624;BME280;61921;53.226;-1.296;2023-05-25T00:07:53;101670.07;;;17.89;65.22
73624;BME280;61921;53.226;-1.296;2023-05-25T00:10:19;101670.26;;;17.90;65.05
73624;BME280;61921;53.226;-1.296;2023-05-25T00:12:44;101671.61;;;17.92;65.19
73624;BME280;61921;53.226;-1.296;2023-05-25T00:15:10;101672.54;;;17.88;65.55
73624;BME280;61921;53.226;-1.296;2023-05-25T00:17:35;101672.91;;;17.35;67.55
73624;BME280;61921;53.226;-1.296;2023-05-25T00:20:01;101675.84;;;17.22;69.07
73624;BME280;61921;53.226;-1.296;2023-05-25T00:22:26;101672.70;;;17.11;70.42
73624;BME280;61921;53.226;-1.296;2023-05-25T00:24:51;101671.95;;;17.12;70.39
73624;BME280;61921;53.226;-1.296;2023-05-25T00:27:17;101671.31;;;16.91;71.69
73624;BME280;61921;53.226;-1.296;2023-05-25T00:29:43;101674.80;;;16.65;72.73
73624;BME280;61921;53.226;-1.296;2023-05-25T00:32:08;101674.87;;;16.35;74.37
73624;BME280;61921;53.226;-1.296;2023-05-25T00:34:34;101677.94;;;16.36;74.31
73624;BME280;61921;53.226;-1.296;2023-05-25T00:36:59;101677.39;;;16.41;74.23
73624;BME280;61921;53.226;-1.296;2023-05-25T00:39:25;101677.02;;;16.55;73.53
73624;BME280;61921;53.226;-1.296;2023-05-25T00:41:51;101679.32;;;16.53;73.30
73624;BME280;61921;53.226;-1.296;2023-05-25T00:44:16;101682.52;;;16.58;73.87
73624;BME280;61921;53.226;-1.296;2023-05-25T00:46:44;101684.46;;;16.53;73.65
73624;BME280;61921;53.226;-1.296;2023-05-25T00:49:07;101685.65;;;16.26;74.89
73624;BME280;61921;53.226;-1.296;2023-05-25T00:51:32;101687.30;;;16.28;74.78
73624;BME280;61921;53.226;-1.296;2023-05-25T00:53:57;101686.74;;;16.09;75.17
73624;BME280;61921;53.226;-1.296;2023-05-25T00:56:25;101688.61;;;15.72;76.57
73624;BME280;61921;53.226;-1.296;2023-05-25T00:58:52;101690.36;;;15.47;77.82
73624;BME280;61921;53.226;-1.296;2023-05-25T01:01:14;101691.58;;;15.45;78.36
73624;BME280;61921;53.226;-1.296;2023-05-25T01:03:41;101692.58;;;15.82;77.01
73624;BME280;61921;53.226;-1.296;2023-05-25T01:06:08;101690.60;;;15.59;77.84
73624;BME280;61921;53.226;-1.296;2023-05-25T01:08:30;101687.30;;;15.90;76.46
73624;BME280;61921;53.226;-1.296;2023-05-25T01:10:54;101687.40;;;15.92;76.73
73624;BME280;61921;53.226;-1.296;2023-05-25T01:13:19;101685.12;;;15.94;76.58
73624;BME280;61921;53.226;-1.296;2023-05-25T01:15:45;101682.52;;;15.92;76.54
73624;BME280;61921;53.226;-1.296;2023-05-25T01:18:09;101682.93;;;15.62;77.47
73624;BME280;61921;53.226;-1.296;2023-05-25T01:20:35;101679.91;;;15.54;78.16
73624;BME280;61921;53.226;-1.296;2023-05-25T01:23:06;101676.56;;;15.88;77.36
73624;BME280;61921;53.226;-1.296;2023-05-25T01:25:31;101677.59;;;16.11;76.37
73624;BME280;61921;53.226;-1.296;2023-05-25T01:27:55;101677.62;;;16.24;75.91
73624;BME280;61921;53.226;-1.296;2023-05-25T01:30:18;101677.07;;;16.44;74.97
73624;BME280;61921;53.226;-1.296;2023-05-25T01:32:42;101675.75;;;16.40;74.74
73624;BME280;61921;53.226;-1.296;2023-05-25T01:35:08;101677.84;;;16.47;74.70
73624;BME280;61921;53.226;-1.296;2023-05-25T01:37:34;101676.72;;;16.31;75.20
73624;BME280;61921;53.226;-1.296;2023-05-25T01:40:00;101680.01;;;16.39;75.19
73624;BME280;61921;53.226;-1.296;2023-05-25T01:42:25;101680.35;;;16.47;74.96
73624;BME280;61921;53.226;-1.296;2023-05-25T01:44:51;101678.20;;;16.40;74.98
73624;BME280;61921;53.226;-1.296;2023-05-25T01:47:23;101678.13;;;16.50;74.65
73624;BME280;61921;53.226;-1.296;2023-05-25T01:49:48;101680.72;;;16.44;74.55
73624;BME280;61921;53.226;-1.296;2023-05-25T01:52:15;101675.06;;;16.36;74.79
73624;BME280;61921;53.226;-1.296;2023-05-25T01:54:37;101678.73;;;16.35;74.56
73624;BME280;61921;53.226;-1.296;2023-05-25T01:57:01;101681.98;;;16.39;74.09
73624;BME280;61921;53.226;-1.296;2023-05-25T01:59:25;101684.67;;;16.28;73.96
73624;BME280;61921;53.226;-1.296;2023-05-25T02:01:50;101683.51;;;16.08;73.75
73624;BME280;61921;53.226;-1.296;2023-05-25T02:04:16;101686.35;;;16.01;74.27
73624;BME280;61921;53.226;-1.296;2023-05-25T02:06:41;101693.75;;;15.87;73.94
73624;BME280;61921;53.226;-1.296;2023-05-25T02:09:06;101694.33;;;15.95;74.15
73624;BME280;61921;53.226;-1.296;2023-05-25T02:11:32;101696.20;;;15.50;75.17
73624;BME280;61921;53.226;-1.296;2023-05-25T02:13:57;101699.05;;;15.64;74.98
73624;BME280;61921;53.226;-1.296;2023-05-25T02:16:22;101701.56;;;15.69;73.82
73624;BME280;61921;53.226;-1.296;2023-05-25T02:18:48;101700.56;;;15.66;72.05
73624;BME280;61921;53.226;-1.296;2023-05-25T02:21:12;101701.70;;;15.64;72.34
73624;BME280;61921;53.226;-1.296;2023-05-25T02:23:38;101705.92;;;15.39;72.35
73624;BME280;61921;53.226;-1.296;2023-05-25T02:26:04;101705.18;;;15.46;72.62
73624;BME280;61921;53.226;-1.296;2023-05-25T02:28:29;101706.20;;;15.41;72.02
73624;BME280;61921;53.226;-1.296;2023-05-25T02:30:55;101707.44;;;15.31;71.61
73624;BME280;61921;53.226;-1.296;2023-05-25T02:33:20;101708.88;;;15.27;72.29
73624;BME280;61921;53.226;-1.296;2023-05-25T02:35:46;101709.97;;;15.21;72.64
73624;BME280;61921;53.226;-1.296;2023-05-25T02:38:12;101709.02;;;14.96;73.23
73624;BME280;61921;53.226;-1.296;2023-05-25T02:40:37;101709.55;;;15.05;73.86
73624;BME280;61921;53.226;-1.296;2023-05-25T02:43:02;101713.19;;;15.01;73.29
73624;BME280;61921;53.226;-1.296;2023-05-25T02:45:28;101715.73;;;14.97;73.61
73624;BME280;61921;53.226;-1.296;2023-05-25T02:47:53;101712.37;;;15.01;73.59
73624;BME280;61921;53.226;-1.296;2023-05-25T02:50:18;101714.21;;;14.92;73.95
73624;BME280;61921;53.226;-1.296;2023-05-25T02:52:44;101713.55;;;14.85;73.98
73624;BME280;61921;53.226;-1.296;2023-05-25T02:55:09;101714.63;;;14.78;74.42
73624;BME280;61921;53.226;-1.296;2023-05-25T02:57:35;101714.99;;;14.87;74.75
73624;BME280;61921;53.226;-1.296;2023-05-25T03:00:01;101714.68;;;14.70;75.04
73624;BME280;61921;53.226;-1.296;2023-05-25T03:02:26;101718.50;;;14.78;74.94
73624;BME280;61921;53.226;-1.296;2023-05-25T03:04:51;101719.25;;;14.57;76.14
73624;BME280;61921;53.226;-1.296;2023-05-25T03:07:18;101715.79;;;14.74;75.96
73624;BME280;61921;53.226;-1.296;2023-05-25T03:09:42;101715.57;;;14.52;76.41
73624;BME280;61921;53.226;-1.296;2023-05-25T03:12:07;101719.53;;;14.51;76.51
73624;BME280;61921;53.226;-1.296;2023-05-25T03:14:32;101720.38;;;14.63;75.73
73624;BME280;61921;53.226;-1.296;2023-05-25T03:16:58;101718.26;;;14.55;76.03
73624;BME280;61921;53.226;-1.296;2023-05-25T03:19:23;101721.95;;;14.58;76.48
73624;BME280;61921;53.226;-1.296;2023-05-25T03:21:49;101720.55;;;14.72;76.33
73624;BME280;61921;53.226;-1.296;2023-05-25T03:24:14;101725.49;;;14.82;75.63
73624;BME280;61921;53.226;-1.296;2023-05-25T03:26:40;101724.09;;;14.69;75.83
73624;BME280;61921;53.226;-1.296;2023-05-25T03:29:05;101723.80;;;14.57;76.32
73624;BME280;61921;53.226;-1.296;2023-05-25T03:31:30;101724.62;;;14.53;77.18
73624;BME280;61921;53.226;-1.296;2023-05-25T03:33:55;101722.57;;;14.39;78.08
73624;BME280;61921;53.226;-1.296;2023-05-25T03:36:21;101727.93;;;14.42;78.03
73624;BME280;61921;53.226;-1.296;2023-05-25T03:38:47;101730.46;;;14.37;77.33
73624;BME280;61921;53.226;-1.296;2023-05-25T03:41:12;101729.57;;;14.24;77.19
73624;BME280;61921;53.226;-1.296;2023-05-25T03:43:37;101731.43;;;14.01;77.10
73624;BME280;61921;53.226;-1.296;2023-05-25T03:46:03;101732.93;;;13.98;76.68
73624;BME280;61921;53.226;-1.296;2023-05-25T03:48:28;101727.63;;;13.80;76.71
73624;BME280;61921;53.226;-1.296;2023-05-25T03:50:54;101732.95;;;13.72;76.78
73624;BME280;61921;53.226;-1.296;2023-05-25T03:53:19;101738.23;;;13.60;77.18
73624;BME280;61921;53.226;-1.296;2023-05-25T03:55:44;101740.48;;;13.44;77.75
73624;BME280;61921;53.226;-1.296;2023-05-25T03:58:10;101737.50;;;13.44;77.87
73624;BME280;61921;53.226;-1.296;2023-05-25T04:00:35;101739.91;;;13.48;77.89
73624;BME280;61921;53.226;-1.296;2023-05-25T04:03:01;101742.42;;;13.44;77.34
73624;BME280;61921;53.226;-1.296;2023-05-25T04:05:26;101748.69;;;13.28;78.22
73624;BME280;61921;53.226;-1.296;2023-05-25T04:07:52;101748.37;;;13.36;78.07
73624;BME280;61921;53.226;-1.296;2023-05-25T04:10:17;101746.76;;;13.36;78.29
73624;BME280;61921;53.226;-1.296;2023-05-25T04:12:43;101747.91;;;13.39;78.22
73624;BME280;61921;53.226;-1.296;2023-05-25T04:15:08;101750.78;;;13.37;78.12
73624;BME280;61921;53.226;-1.296;2023-05-25T04:17:34;101751.18;;;13.41;78.08
73624;BME280;61921;53.226;-1.296;2023-05-25T04:19:59;101751.68;;;13.41;77.63
73624;BME280;61921;53.226;-1.296;2023-05-25T04:22:24;101752.98;;;13.40;77.68
73624;BME280;61921;53.226;-1.296;2023-05-25T04:24:50;101760.75;;;13.14;78.93
73624;BME280;61921;53.226;-1.296;2023-05-25T04:27:15;101762.79;;;13.20;79.21
73624;BME280;61921;53.226;-1.296;2023-05-25T04:29:40;101765.81;;;13.12;80.26
73624;BME280;61921;53.226;-1.296;2023-05-25T04:32:06;101767.86;;;13.09;80.41
73624;BME280;61921;53.226;-1.296;2023-05-25T04:34:31;101764.74;;;13.13;80.57
73624;BME280;61921;53.226;-1.296;2023-05-25T04:36:56;101767.88;;;13.08;80.95
73624;BME280;61921;53.226;-1.296;2023-05-25T04:39:22;101767.52;;;13.09;81.54
73624;BME280;61921;53.226;-1.296;2023-05-25T04:41:47;101771.83;;;13.18;81.83
73624;BME280;61921;53.226;-1.296;2023-05-25T04:44:13;101775.26;;;13.23;81.73
73624;BME280;61921;53.226;-1.296;2023-05-25T04:46:38;101779.66;;;13.30;81.94
73624;BME280;61921;53.226;-1.296;2023-05-25T04:49:04;101784.66;;;13.39;81.86
73624;BME280;61921;53.226;-1.296;2023-05-25T04:51:29;101785.77;;;13.48;81.44
73624;BME280;61921;53.226;-1.296;2023-05-25T04:53:55;101787.34;;;13.49;81.84
73624;BME280;61921;53.226;-1.296;2023-05-25T04:56:20;101788.57;;;13.65;81.35
73624;BME280;61921;53.226;-1.296;2023-05-25T04:58:46;101787.64;;;13.86;80.42
73624;BME280;61921;53.226;-1.296;2023-05-25T05:01:12;101792.06;;;14.01;79.13
73624;BME280;61921;53.226;-1.296;2023-05-25T05:03:37;101796.29;;;13.95;78.46
73624;BME280;61921;53.226;-1.296;2023-05-25T05:06:03;101791.99;;;14.19;77.19
73624;BME280;61921;53.226;-1.296;2023-05-25T05:08:28;101790.33;;;14.00;77.93
73624;BME280;61921;53.226;-1.296;2023-05-25T05:10:53;101790.35;;;13.70;80.06
73624;BME280;61921;53.226;-1.296;2023-05-25T05:13:19;101786.29;;;14.10;78.63
73624;BME280;61921;53.226;-1.296;2023-05-25T05:15:44;101792.78;;;14.33;77.56
73624;BME280;61921;53.226;-1.296;2023-05-25T05:18:09;101795.60;;;14.52;76.41
73624;BME280;61921;53.226;-1.296;2023-05-25T05:20:35;101798.84;;;14.39;77.07
73624;BME280;61921;53.226;-1.296;2023-05-25T05:23:00;101800.65;;;14.23;77.08
73624;BME280;61921;53.226;-1.296;2023-05-25T05:25:25;101800.53;;;14.33;77.25
73624;BME280;61921;53.226;-1.296;2023-05-25T05:27:50;101804.73;;;14.66;75.96
73624;BME280;61921;53.226;-1.296;2023-05-25T05:30:16;101806.34;;;14.99;74.41
73624;BME280;61921;53.226;-1.296;2023-05-25T05:32:41;101809.60;;;15.25;72.39
73624;BME280;61921;53.226;-1.296;2023-05-25T05:35:07;101816.44;;;15.11;72.26
73624;BME280;61921;53.226;-1.296;2023-05-25T05:37:33;101821.69;;;14.80;73.93
73624;BME280;61921;53.226;-1.296;2023-05-25T05:39:58;101824.96;;;14.82;73.93
73624;BME280;61921;53.226;-1.296;2023-05-25T05:42:23;101823.77;;;14.65;75.03
73624;BME280;61921;53.226;-1.296;2023-05-25T05:44:49;101823.92;;;14.59;75.43
73624;BME280;61921;53.226;-1.296;2023-05-25T05:47:15;101827.08;;;14.14;77.51
73624;BME280;61921;53.226;-1.296;2023-05-25T05:49:40;101825.70;;;14.04;79.17
73624;BME280;61921;53.226;-1.296;2023-05-25T05:52:08;101829.03;;;13.87;79.04
73624;BME280;61921;53.226;-1.296;2023-05-25T05:54:31;101833.92;;;14.07;78.19
73624;BME280;61921;53.226;-1.296;2023-05-25T05:56:56;101835.61;;;13.95;79.29
73624;BME280;61921;53.226;-1.296;2023-05-25T05:59:22;101840.34;;;14.01;78.92
73624;BME280;61921;53.226;-1.296;2023-05-25T06:01:47;101840.08;;;13.92;79.30
73624;BME280;61921;53.226;-1.296;2023-05-25T06:04:13;101844.19;;;13.85;79.56
73624;BME280;61921;53.226;-1.296;2023-05-25T06:06:39;101843.55;;;14.03;79.55
73624;BME280;61921;53.226;-1.296;2023-05-25T06:09:04;101842.20;;;13.86;80.98
73624;BME280;61921;53.226;-1.296;2023-05-25T06:11:29;101842.09;;;13.88;81.06
73624;BME280;61921;53.226;-1.296;2023-05-25T06:13:54;101847.95;;;13.93;80.35
73624;BME280;61921;53.226;-1.296;2023-05-25T06:16:20;101850.53;;;14.13;79.44
73624;BME280;61921;53.226;-1.296;2023-05-25T06:18:45;101856.12;;;13.85;80.68
73624;BME280;61921;53.226;-1.296;2023-05-25T06:21:11;101857.95;;;13.93;80.04
73624;BME280;61921;53.226;-1.296;2023-05-25T06:23:36;101859.74;;;13.84;79.41
73624;BME280;61921;53.226;-1.296;2023-05-25T06:26:03;101856.16;;;13.61;79.64
73624;BME280;61921;53.226;-1.296;2023-05-25T06:28:27;101855.70;;;13.64;79.18
73624;BME280;61921;53.226;-1.296;2023-05-25T06:30:52;101853.00;;;13.64;80.37
73624;BME280;61921;53.226;-1.296;2023-05-25T06:33:18;101848.34;;;13.68;79.54
73624;BME280;61921;53.226;-1.296;2023-05-25T06:35:43;101851.45;;;13.67;79.72
73624;BME280;61921;53.226;-1.296;2023-05-25T06:38:08;101856.67;;;13.72;79.69
73624;BME280;61921;53.226;-1.296;2023-05-25T06:40:33;101855.07;;;13.91;79.25
73624;BME280;61921;53.226;-1.296;2023-05-25T06:42:58;101856.35;;;14.01;79.67
73624;BME280;61921;53.226;-1.296;2023-05-25T06:45:23;101863.06;;;14.26;77.57
73624;BME280;61921;53.226;-1.296;2023-05-25T06:47:49;101865.00;;;14.21;78.12
73624;BME280;61921;53.226;-1.296;2023-05-25T06:50:15;101865.84;;;14.41;77.78
73624;BME280;61921;53.226;-1.296;2023-05-25T06:52:41;101864.20;;;14.27;77.25
73624;BME280;61921;53.226;-1.296;2023-05-25T06:55:07;101867.61;;;14.43;76.74
73624;BME280;61921;53.226;-1.296;2023-05-25T06:57:32;101866.10;;;14.34;76.91
73624;BME280;61921;53.226;-1.296;2023-05-25T06:59:57;101866.13;;;14.74;75.36
73624;BME280;61921;53.226;-1.296;2023-05-25T07:02:23;101865.10;;;14.98;75.87
73624;BME280;61921;53.226;-1.296;2023-05-25T07:04:48;101865.44;;;14.68;75.28
73624;BME280;61921;53.226;-1.296;2023-05-25T07:07:14;101869.98;;;14.94;75.07
73624;BME280;61921;53.226;-1.296;2023-05-25T07:09:40;101874.30;;;14.98;74.14
73624;BME280;61921;53.226;-1.296;2023-05-25T07:12:06;101878.52;;;14.90;74.14
73624;BME280;61921;53.226;-1.296;2023-05-25T07:14:32;101882.00;;;15.44;74.01
73624;BME280;61921;53.226;-1.296;2023-05-25T07:16:57;101883.63;;;16.35;69.51
73624;BME280;61921;53.226;-1.296;2023-05-25T07:19:22;101884.09;;;16.82;67.49
73624;BME280;61921;53.226;-1.296;2023-05-25T07:21:48;101887.31;;;17.29;65.67
73624;BME280;61921;53.226;-1.296;2023-05-25T07:24:13;101889.68;;;17.04;65.12
73624;BME280;61921;53.226;-1.296;2023-05-25T07:26:38;101895.93;;;16.81;66.42
73624;BME280;61921;53.226;-1.296;2023-05-25T07:29:03;101896.08;;;17.45;64.07
73624;BME280;61921;53.226;-1.296;2023-05-25T07:31:28;101896.61;;;17.43;62.77
73624;BME280;61921;53.226;-1.296;2023-05-25T07:33:53;101899.45;;;17.71;62.68
73624;BME280;61921;53.226;-1.296;2023-05-25T07:36:19;101899.21;;;17.87;61.83
73624;BME280;61921;53.226;-1.296;2023-05-25T07:38:45;101893.37;;;18.53;60.60
73624;BME280;61921;53.226;-1.296;2023-05-25T07:41:10;101893.68;;;18.85;59.48
73624;BME280;61921;53.226;-1.296;2023-05-25T07:43:35;101895.00;;;18.94;58.66
73624;BME280;61921;53.226;-1.296;2023-05-25T07:46:07;101901.67;;;18.39;58.77
73624;BME280;61921;53.226;-1.296;2023-05-25T07:48:26;101908.26;;;17.83;59.90
73624;BME280;61921;53.226;-1.296;2023-05-25T07:50:52;101906.79;;;17.29;61.08
73624;BME280;61921;53.226;-1.296;2023-05-25T07:53:16;101906.51;;;17.90;61.22
73624;BME280;61921;53.226;-1.296;2023-05-25T07:55:42;101903.72;;;18.47;59.06
73624;BME280;61921;53.226;-1.296;2023-05-25T07:58:07;101904.60;;;18.24;59.04
73624;BME280;61921;53.226;-1.296;2023-05-25T08:00:32;101906.08;;;17.99;60.96
73624;BME280;61921;53.226;-1.296;2023-05-25T08:02:57;101911.37;;;17.98;61.51
73624;BME280;61921;53.226;-1.296;2023-05-25T08:05:23;101907.82;;;18.19;59.87
73624;BME280;61921;53.226;-1.296;2023-05-25T08:07:48;101907.95;;;19.01;58.43
73624;BME280;61921;53.226;-1.296;2023-05-25T08:10:14;101918.68;;;19.57;57.41
73624;BME280;61921;53.226;-1.296;2023-05-25T08:12:39;101916.98;;;19.52;56.43
73624;BME280;61921;53.226;-1.296;2023-05-25T08:15:05;101916.26;;;19.17;56.53
73624;BME280;61921;53.226;-1.296;2023-05-25T08:17:30;101918.74;;;19.36;55.90
73624;BME280;61921;53.226;-1.296;2023-05-25T08:19:55;101911.72;;;18.73;58.24
73624;BME280;61921;53.226;-1.296;2023-05-25T08:22:20;101917.28;;;18.71;57.98
73624;BME280;61921;53.226;-1.296;2023-05-25T08:24:46;101921.88;;;18.19;59.89
73624;BME280;61921;53.226;-1.296;2023-05-25T08:27:11;101922.45;;;18.24;58.64
73624;BME280;61921;53.226;-1.296;2023-05-25T08:29:37;101927.69;;;18.56;57.51
73624;BME280;61921;53.226;-1.296;2023-05-25T08:32:02;101931.56;;;19.25;56.30
73624;BME280;61921;53.226;-1.296;2023-05-25T08:34:27;101936.00;;;19.03;56.00
73624;BME280;61921;53.226;-1.296;2023-05-25T08:36:53;101946.17;;;18.17;57.31
73624;BME280;61921;53.226;-1.296;2023-05-25T08:39:18;101945.11;;;18.32;57.31
73624;BME280;61921;53.226;-1.296;2023-05-25T08:41:44;101937.98;;;19.08;56.74
73624;BME280;61921;53.226;-1.296;2023-05-25T08:44:10;101936.37;;;19.16;55.59
73624;BME280;61921;53.226;-1.296;2023-05-25T08:46:35;101937.94;;;19.74;54.40
73624;BME280;61921;53.226;-1.296;2023-05-25T08:49:04;101941.74;;;19.11;55.77
73624;BME280;61921;53.226;-1.296;2023-05-25T08:51:25;101935.72;;;18.95;57.05
73624;BME280;61921;53.226;-1.296;2023-05-25T08:53:52;101936.42;;;19.22;56.07
73624;BME280;61921;53.226;-1.296;2023-05-25T08:56:19;101937.95;;;19.11;57.00
73624;BME280;61921;53.226;-1.296;2023-05-25T08:58:45;101940.80;;;18.86;57.71
73624;BME280;61921;53.226;-1.296;2023-05-25T09:01:14;101941.78;;;19.05;57.08
73624;BME280;61921;53.226;-1.296;2023-05-25T09:03:34;101936.71;;;18.87;57.56
73624;BME280;61921;53.226;-1.296;2023-05-25T09:05:58;101939.38;;;19.64;55.48
73624;BME280;61921;53.226;-1.296;2023-05-25T09:08:25;101940.78;;;20.19;53.54
73624;BME280;61921;53.226;-1.296;2023-05-25T09:10:49;101934.87;;;20.38;53.51
73624;BME280;61921;53.226;-1.296;2023-05-25T09:13:15;101939.44;;;19.97;53.69
73624;BME280;61921;53.226;-1.296;2023-05-25T09:15:39;101937.60;;;20.31;54.19
73624;BME280;61921;53.226;-1.296;2023-05-25T09:18:05;101935.90;;;20.89;52.19
73624;BME280;61921;53.226;-1.296;2023-05-25T09:20:31;101939.46;;;19.85;54.71
73624;BME280;61921;53.226;-1.296;2023-05-25T09:22:56;101942.21;;;20.09;55.60
73624;BME280;61921;53.226;-1.296;2023-05-25T09:25:22;101941.43;;;20.65;53.51
73624;BME280;61921;53.226;-1.296;2023-05-25T09:27:47;101938.39;;;19.80;54.17
73624;BME280;61921;53.226;-1.296;2023-05-25T09:30:12;101939.02;;;19.06;57.33
73624;BME280;61921;53.226;-1.296;2023-05-25T09:32:37;101939.66;;;19.09;57.76
73624;BME280;61921;53.226;-1.296;2023-05-25T09:35:06;101944.02;;;19.56;56.47
73624;BME280;61921;53.226;-1.296;2023-05-25T09:37:27;101951.38;;;19.61;55.64
73624;BME280;61921;53.226;-1.296;2023-05-25T09:39:53;101951.50;;;19.79;56.12
73624;BME280;61921;53.226;-1.296;2023-05-25T09:42:18;101956.41;;;19.15;56.41
73624;BME280;61921;53.226;-1.296;2023-05-25T09:44:43;101953.93;;;19.22;56.18
73624;BME280;61921;53.226;-1.296;2023-05-25T09:47:09;101956.09;;;18.79;57.01
73624;BME280;61921;53.226;-1.296;2023-05-25T09:49:34;101952.88;;;19.21;56.60
73624;BME280;61921;53.226;-1.296;2023-05-25T09:52:01;101957.64;;;20.34;53.32
73624;BME280;61921;53.226;-1.296;2023-05-25T09:54:25;101958.15;;;20.66;53.66
73624;BME280;61921;53.226;-1.296;2023-05-25T09:56:50;101955.74;;;19.72;53.99
73624;BME280;61921;53.226;-1.296;2023-05-25T09:59:16;101959.05;;;20.46;53.07
73624;BME280;61921;53.226;-1.296;2023-05-25T10:01:41;101962.91;;;20.74;51.31
73624;BME280;61921;53.226;-1.296;2023-05-25T10:04:06;101963.63;;;20.96;50.87
73624;BME280;61921;53.226;-1.296;2023-05-25T10:06:32;101960.48;;;21.51;49.49
73624;BME280;61921;53.226;-1.296;2023-05-25T10:08:56;101963.02;;;21.27;49.91
73624;BME280;61921;53.226;-1.296;2023-05-25T10:11:22;101962.17;;;21.06;49.25
73624;BME280;61921;53.226;-1.296;2023-05-25T10:13:49;101969.31;;;20.73;50.12
73624;BME280;61921;53.226;-1.296;2023-05-25T10:16:15;101967.57;;;18.79;54.73
73624;BME280;61921;53.226;-1.296;2023-05-25T10:18:41;101969.00;;;19.83;53.69
73624;BME280;61921;53.226;-1.296;2023-05-25T10:21:03;101965.67;;;20.27;51.90
73624;BME280;61921;53.226;-1.296;2023-05-25T10:23:30;101964.46;;;20.38;52.30
73624;BME280;61921;53.226;-1.296;2023-05-25T10:25:56;101966.20;;;21.10;49.92
73624;BME280;61921;53.226;-1.296;2023-05-25T10:28:21;101965.86;;;20.90;51.29
73624;BME280;61921;53.226;-1.296;2023-05-25T10:30:44;101966.71;;;20.37;50.87
73624;BME280;61921;53.226;-1.296;2023-05-25T10:33:09;101963.60;;;20.08;52.09
73624;BME280;61921;53.226;-1.296;2023-05-25T10:35:36;101963.67;;;20.06;52.04
73624;BME280;61921;53.226;-1.296;2023-05-25T10:38:01;101963.90;;;19.61;53.56
73624;BME280;61921;53.226;-1.296;2023-05-25T10:40:25;101963.78;;;19.98;52.82
73624;BME280;61921;53.226;-1.296;2023-05-25T10:42:50;101959.60;;;19.69;53.46
73624;BME280;61921;53.226;-1.296;2023-05-25T10:45:15;101961.30;;;20.12;52.15
73624;BME280;61921;53.226;-1.296;2023-05-25T10:47:40;101960.31;;;21.09;48.16
73624;BME280;61921;53.226;-1.296;2023-05-25T10:50:07;101963.79;;;21.13;47.88
73624;BME280;61921;53.226;-1.296;2023-05-25T10:52:31;101970.16;;;21.20;48.38
73624;BME280;61921;53.226;-1.296;2023-05-25T10:54:58;101964.65;;;21.06;48.04
73624;BME280;61921;53.226;-1.296;2023-05-25T10:57:22;101969.64;;;21.54;47.55
73624;BME280;61921;53.226;-1.296;2023-05-25T10:59:48;101965.92;;;21.45;48.21
73624;BME280;61921;53.226;-1.296;2023-05-25T11:02:13;101970.26;;;20.72;50.08
73624;BME280;61921;53.226;-1.296;2023-05-25T11:04:37;101973.27;;;21.11;49.88
73624;BME280;61921;53.226;-1.296;2023-05-25T11:07:05;101970.03;;;21.19;49.65
73624;BME280;61921;53.226;-1.296;2023-05-25T11:09:28;101969.08;;;21.38;48.62
73624;BME280;61921;53.226;-1.296;2023-05-25T11:11:59;101963.33;;;21.71;48.53
73624;BME280;61921;53.226;-1.296;2023-05-25T11:14:20;101969.91;;;21.37;49.25
73624;BME280;61921;53.226;-1.296;2023-05-25T11:16:42;101967.00;;;21.02;49.76
73624;BME280;61921;53.226;-1.296;2023-05-25T11:19:14;101971.05;;;20.82;49.85
73624;BME280;61921;53.226;-1.296;2023-05-25T11:21:42;101964.93;;;20.92;48.69
73624;BME280;61921;53.226;-1.296;2023-05-25T11:24:00;101965.74;;;20.91;48.18
73624;BME280;61921;53.226;-1.296;2023-05-25T11:26:28;101968.43;;;20.42;49.34
73624;BME280;61921;53.226;-1.296;2023-05-25T11:28:50;101971.38;;;20.47;50.29
73624;BME280;61921;53.226;-1.296;2023-05-25T11:31:14;101972.92;;;20.86;47.72
73624;BME280;61921;53.226;-1.296;2023-05-25T11:33:39;101967.58;;;21.58;44.64
73624;BME280;61921;53.226;-1.296;2023-05-25T11:36:05;101965.60;;;22.54;45.08
73624;BME280;61921;53.226;-1.296;2023-05-25T11:38:30;101962.33;;;23.00;43.44
73624;BME280;61921;53.226;-1.296;2023-05-25T11:40:55;101967.15;;;22.75;42.40
73624;BME280;61921;53.226;-1.296;2023-05-25T11:43:20;101963.70;;;22.86;42.27
73624;BME280;61921;53.226;-1.296;2023-05-25T11:45:54;101958.71;;;21.41;44.66
73624;BME280;61921;53.226;-1.296;2023-05-25T11:48:12;101964.59;;;22.05;45.41
73624;BME280;61921;53.226;-1.296;2023-05-25T11:50:35;101963.78;;;21.79;46.16
73624;BME280;61921;53.226;-1.296;2023-05-25T11:53:04;101958.35;;;22.32;44.36
73624;BME280;61921;53.226;-1.296;2023-05-25T11:55:25;101958.06;;;22.39;42.66
73624;BME280;61921;53.226;-1.296;2023-05-25T11:57:55;101957.98;;;22.15;42.66
73624;BME280;61921;53.226;-1.296;2023-05-25T12:00:23;101957.97;;;21.97;43.89
73624;BME280;61921;53.226;-1.296;2023-05-25T12:02:41;101957.19;;;22.22;43.50
73624;BME280;61921;53.226;-1.296;2023-05-25T12:05:06;101950.72;;;22.80;42.63
73624;BME280;61921;53.226;-1.296;2023-05-25T12:07:32;101949.13;;;22.90;42.91
73624;BME280;61921;53.226;-1.296;2023-05-25T12:10:04;101951.45;;;23.45;42.06
73624;BME280;61921;53.226;-1.296;2023-05-25T12:12:22;101947.87;;;22.80;41.20
73624;BME280;61921;53.226;-1.296;2023-05-25T12:14:47;101948.39;;;23.68;40.47
73624;BME280;61921;53.226;-1.296;2023-05-25T12:17:12;101950.89;;;24.10;39.65
73624;BME280;61921;53.226;-1.296;2023-05-25T12:19:37;101947.17;;;23.76;40.32
73624;BME280;61921;53.226;-1.296;2023-05-25T12:22:02;101952.18;;;23.14;42.01
73624;BME280;61921;53.226;-1.296;2023-05-25T12:24:27;101954.89;;;22.71;43.69
73624;BME280;61921;53.226;-1.296;2023-05-25T12:26:53;101954.84;;;21.96;43.05
73624;BME280;61921;53.226;-1.296;2023-05-25T12:29:19;101954.52;;;21.72;43.62